Time;durP1;ratioP1;P1;durP2;ratioP2;P2;SDS_P1;SDS_P2;PMS_P1;PMS_P2;Temp;Humidity;BMP_temperature;BMP_pressure;BME280_temperature;BME280_humidity;BME280_pressure;Samples;Min_cycle;Max_cycle;Signal;HPM_P1;HPM_P2
2022/10/14 00:01:50;;;;;;;;;;;;;;;7.50;93.56;100860.71;1456714;89;20300;-76
2022/10/14 00:04:17;;;;;;;;;;;;;;;7.48;93.66;100860.02;1458352;89;20284;-77
2022/10/14 00:06:44;;;;;;;;;;;;;;;7.47;92.60;100860.95;1458216;89;20292;-77
2022/10/14 00:09:11;;;;;;;;;;;;;;;7.45;92.19;100855.81;1465963;89;20441;-78
2022/10/14 00:11:38;;;;;;;;;;;;;;;7.43;92.70;100847.66;1457737;89;20375;-77
2022/10/14 00:14:08;;;;;;;;;;;;;;;7.40;92.14;100844.78;1453703;89;20289;-78
2022/10/14 00:16:37;;;;;;;;;;;;;;;7.37;91.93;100844.19;1457661;89;20394;-78
2022/10/14 00:19:05;;;;;;;;;;;;;;;7.33;91.83;100847.50;1446914;89;20285;-78
2022/10/14 00:21:33;;;;;;;;;;;;;;;7.30;92.37;100846.42;1459316;89;20403;-77
2022/10/14 00:24:00;;;;;;;;;;;;;;;7.26;92.53;100852.06;1463551;89;20420;-78
2022/10/14 00:26:30;;;;;;;;;;;;;;;7.21;93.60;100848.44;1465534;89;20463;-77
2022/10/14 00:28:58;;;;;;;;;;;;;;;7.19;93.23;100855.16;1459469;89;20433;-77
2022/10/14 00:31:26;;;;;;;;;;;;;;;7.22;92.70;100848.80;1465817;88;20337;-78
2022/10/14 00:33:53;;;;;;;;;;;;;;;7.25;92.05;100855.17;1464472;89;20256;-76
2022/10/14 00:36:23;;;;;;;;;;;;;;;7.28;92.38;100842.22;1464882;89;20256;-78
2022/10/14 00:38:51;;;;;;;;;;;;;;;7.24;92.91;100839.83;1454222;89;20769;-78
2022/10/14 00:41:21;;;;;;;;;;;;;;;7.20;94.20;100848.09;1450901;89;20367;-78
2022/10/14 00:43:55;;;;;;;;;;;;;;;7.14;94.75;100846.76;1458472;89;20564;-77
2022/10/14 00:46:23;;;;;;;;;;;;;;;7.14;94.11;100846.76;1461379;89;20836;-78
2022/10/14 00:48:50;;;;;;;;;;;;;;;7.20;93.27;100848.92;1458686;89;20659;-78
2022/10/14 00:51:18;;;;;;;;;;;;;;;7.29;93.87;100846.56;1457693;89;20278;-78
2022/10/14 00:53:45;;;;;;;;;;;;;;;7.29;94.19;100837.34;1441760;89;20353;-77
2022/10/14 00:56:14;;;;;;;;;;;;;;;7.23;94.38;100834.69;1439627;90;20785;-79
2022/10/14 00:58:43;;;;;;;;;;;;;;;7.17;93.85;100841.27;1451199;90;20408;-78
2022/10/14 01:01:10;;;;;;;;;;;;;;;7.10;93.32;100833.92;1441857;90;20405;-78
2022/10/14 01:03:38;;;;;;;;;;;;;;;7.04;93.02;100835.71;1441623;90;20591;-78
2022/10/14 01:06:39;;;;;;;;;;;;;;;6.97;92.74;100839.28;1442934;90;20278;-78
2022/10/14 01:09:30;;;;;;;;;;;;;;;6.96;92.62;100833.19;1446175;90;20424;-79
2022/10/14 01:12:22;;;;;;;;;;;;;;;7.00;92.90;100839.05;1458400;89;20229;-79
2022/10/14 01:15:03;;;;;;;;;;;;;;;7.00;92.60;100831.99;1461172;89;20398;-78
2022/10/14 01:17:51;;;;;;;;;;;;;;;7.00;91.84;100835.11;1452346;90;20300;-78
2022/10/14 01:20:34;;;;;;;;;;;;;;;6.98;92.09;100829.11;1455047;89;20305;-79
2022/10/14 01:23:30;;;;;;;;;;;;;;;6.91;92.29;100830.53;1459689;89;20374;-78
2022/10/14 01:26:00;;;;;;;;;;;;;;;6.86;91.81;100824.77;1457115;89;20403;-78
2022/10/14 01:28:31;;;;;;;;;;;;;;;6.82;91.68;100825.48;1467101;89;20464;-79
2022/10/14 01:31:01;;;;;;;;;;;;;;;6.78;92.54;100824.84;1446150;89;20407;-78
2022/10/14 01:33:32;;;;;;;;;;;;;;;6.77;92.42;100819.23;1457855;89;20411;-78
2022/10/14 01:36:09;;;;;;;;;;;;;;;6.77;92.39;100817.91;1460204;89;20828;-78
2022/10/14 01:38:39;;;;;;;;;;;;;;;6.75;93.92;100821.13;1464767;89;20367;-77
2022/10/14 01:41:13;;;;;;;;;;;;;;;6.74;94.68;100816.83;1436959;90;20933;-78
2022/10/14 01:43:42;;;;;;;;;;;;;;;6.72;94.66;100811.31;1444640;90;20323;-78
2022/10/14 01:46:10;;;;;;;;;;;;;;;6.71;94.17;100814.91;1451610;89;20248;-78
2022/10/14 01:48:39;;;;;;;;;;;;;;;6.69;94.67;100812.38;1458711;89;20293;-78
2022/10/14 01:51:10;;;;;;;;;;;;;;;6.66;94.87;100809.98;1455273;89;20274;-78
2022/10/14 01:53:40;;;;;;;;;;;;;;;6.65;95.85;100806.99;1460094;89;20288;-78
2022/10/14 01:56:08;;;;;;;;;;;;;;;6.62;96.65;100809.85;1454603;89;20404;-80
2022/10/14 01:58:36;;;;;;;;;;;;;;;6.62;96.41;100807.22;1456108;89;20333;-78
2022/10/14 02:01:05;;;;;;;;;;;;;;;6.62;96.35;100803.72;1460088;89;20415;-79
2022/10/14 02:03:41;;;;;;;;;;;;;;;6.62;96.35;100797.15;1457626;89;20500;-79
2022/10/14 02:06:17;;;;;;;;;;;;;;;6.63;96.03;100799.68;1467743;89;20486;-78
2022/10/14 02:09:05;;;;;;;;;;;;;;;6.62;95.94;100802.41;1458879;89;20289;-78
2022/10/14 02:11:45;;;;;;;;;;;;;;;6.58;97.05;100797.86;1459845;89;20290;-79
2022/10/14 02:14:16;;;;;;;;;;;;;;;6.54;97.07;100796.42;1463131;89;20400;-77
2022/10/14 02:16:49;;;;;;;;;;;;;;;6.52;96.78;100799.63;1453919;89;20314;-78
2022/10/14 02:19:20;;;;;;;;;;;;;;;6.50;97.06;100800.20;1429301;91;20284;-78
2022/10/14 02:21:57;;;;;;;;;;;;;;;6.53;96.99;100802.16;1436800;91;20292;-77
2022/10/14 02:24:27;;;;;;;;;;;;;;;6.52;97.06;100798.31;1453350;89;20742;-78
2022/10/14 02:26:57;;;;;;;;;;;;;;;6.52;97.25;100789.11;1463895;89;20355;-78
2022/10/14 02:29:24;;;;;;;;;;;;;;;6.52;97.20;100795.69;1455722;89;20759;-79
2022/10/14 02:31:52;;;;;;;;;;;;;;;6.49;96.87;100792.80;1463484;89;20289;-78
2022/10/14 02:34:21;;;;;;;;;;;;;;;6.50;96.28;100787.06;1449152;89;20486;-78
2022/10/14 02:36:49;;;;;;;;;;;;;;;6.53;95.98;100788.14;1450839;90;20286;-78
2022/10/14 02:39:19;;;;;;;;;;;;;;;6.54;96.56;100788.53;1446805;90;20337;-78
2022/10/14 02:41:46;;;;;;;;;;;;;;;6.53;96.31;100786.83;1450134;90;20307;-78
2022/10/14 02:44:13;;;;;;;;;;;;;;;6.50;95.98;100786.61;1456002;89;20469;-78
2022/10/14 02:46:41;;;;;;;;;;;;;;;6.51;95.62;100786.96;1431273;89;20854;-78
2022/10/14 02:49:08;;;;;;;;;;;;;;;6.51;96.66;100783.02;1466300;89;20846;-78
2022/10/14 02:51:35;;;;;;;;;;;;;;;6.46;96.59;100780.36;1460233;89;20296;-79
2022/10/14 02:54:02;;;;;;;;;;;;;;;6.42;96.69;100786.33;1456375;89;20381;-79
2022/10/14 02:56:29;;;;;;;;;;;;;;;6.38;96.95;100780.08;1453458;89;20234;-79
2022/10/14 02:58:56;;;;;;;;;;;;;;;6.36;96.84;100787.23;1450460;90;20397;-79
2022/10/14 03:01:23;;;;;;;;;;;;;;;6.33;96.93;100785.20;1447921;90;20279;-80
2022/10/14 03:03:50;;;;;;;;;;;;;;;6.29;97.13;100786.36;1459747;89;20310;-79
2022/10/14 03:06:16;;;;;;;;;;;;;;;6.28;97.41;100792.58;1454352;89;20404;-79
2022/10/14 03:08:43;;;;;;;;;;;;;;;6.25;97.72;100791.49;1462823;89;20292;-80
2022/10/14 03:11:10;;;;;;;;;;;;;;;6.25;97.32;100791.97;1448986;89;20826;-79
2022/10/14 03:13:37;;;;;;;;;;;;;;;6.26;97.20;100798.41;1463371;89;20303;-79
2022/10/14 03:16:04;;;;;;;;;;;;;;;6.27;97.45;100797.48;1458269;89;20280;-79
2022/10/14 03:18:35;;;;;;;;;;;;;;;6.27;97.05;100796.17;1457982;89;20349;-78
2022/10/14 03:21:00;;;;;;;;;;;;;;;6.28;97.29;100803.09;1451746;89;20334;-79
2022/10/14 03:23:26;;;;;;;;;;;;;;;6.28;96.85;100797.84;1458335;89;20289;-78
2022/10/14 03:25:53;;;;;;;;;;;;;;;6.24;96.85;100796.39;1454549;89;20781;-78
2022/10/14 03:28:20;;;;;;;;;;;;;;;6.17;96.52;100796.45;1462148;89;20288;-78
2022/10/14 03:30:47;;;;;;;;;;;;;;;6.12;96.43;100794.62;1455816;89;20281;-79
2022/10/14 03:33:13;;;;;;;;;;;;;;;6.08;96.23;100802.38;1457283;89;20271;-77
2022/10/14 03:35:41;;;;;;;;;;;;;;;6.05;96.54;100793.40;1452658;89;20293;-77
2022/10/14 03:38:08;;;;;;;;;;;;;;;6.02;97.05;100797.56;1447481;90;20483;-77
2022/10/14 03:40:35;;;;;;;;;;;;;;;6.01;97.25;100795.86;1449906;89;20272;-77
2022/10/14 03:43:01;;;;;;;;;;;;;;;5.98;97.07;100797.40;1446396;89;20329;-76
2022/10/14 03:45:28;;;;;;;;;;;;;;;5.96;97.10;100797.52;1457202;89;20241;-78
2022/10/14 03:47:55;;;;;;;;;;;;;;;5.95;97.17;100797.14;1453928;89;20241;-77
2022/10/14 03:50:22;;;;;;;;;;;;;;;5.93;97.87;100794.22;1459498;89;20309;-77
2022/10/14 03:52:48;;;;;;;;;;;;;;;5.92;97.65;100795.17;1451206;89;20378;-77
2022/10/14 03:55:15;;;;;;;;;;;;;;;5.92;97.59;100789.92;1457244;89;20317;-77
2022/10/14 03:57:42;;;;;;;;;;;;;;;5.89;98.18;100793.13;1455220;89;20909;-77
2022/10/14 04:00:11;;;;;;;;;;;;;;;5.88;97.85;100794.56;1434077;90;20286;-77
2022/10/14 04:02:38;;;;;;;;;;;;;;;5.86;97.66;100789.87;1446591;90;20279;-76
2022/10/14 04:05:05;;;;;;;;;;;;;;;5.86;97.92;100792.03;1453821;89;20242;-76
2022/10/14 04:07:32;;;;;;;;;;;;;;;5.84;98.11;100791.31;1468126;89;20274;-78
2022/10/14 04:09:59;;;;;;;;;;;;;;;5.82;97.94;100789.27;1458215;89;20275;-78
2022/10/14 04:12:26;;;;;;;;;;;;;;;5.82;98.09;100780.07;1459253;89;21504;-78
2022/10/14 04:14:55;;;;;;;;;;;;;;;5.81;98.85;100780.16;1457969;89;20252;-78
2022/10/14 04:17:23;;;;;;;;;;;;;;;5.81;98.86;100786.28;1457595;89;20324;-77
2022/10/14 04:19:51;;;;;;;;;;;;;;;5.80;99.00;100787.21;1450283;90;20315;-78
2022/10/14 04:22:18;;;;;;;;;;;;;;;5.79;99.96;100782.92;1448170;90;20390;-77
2022/10/14 04:24:45;;;;;;;;;;;;;;;5.80;99.77;100779.33;1452519;90;20387;-77
2022/10/14 04:27:11;;;;;;;;;;;;;;;5.81;99.79;100787.59;1450625;89;20951;-77
2022/10/14 04:29:38;;;;;;;;;;;;;;;5.84;99.63;100780.81;1462225;89;20452;-78
2022/10/14 04:32:05;;;;;;;;;;;;;;;5.85;99.80;100783.80;1446863;89;20512;-78
2022/10/14 04:34:32;;;;;;;;;;;;;;;5.88;99.98;100788.83;1458729;89;20346;-78
2022/10/14 04:36:59;;;;;;;;;;;;;;;5.89;100.00;100785.72;1452359;89;20257;-77
2022/10/14 04:39:26;;;;;;;;;;;;;;;5.89;100.00;100787.03;1456584;89;20520;-78
2022/10/14 04:41:52;;;;;;;;;;;;;;;5.93;99.72;100795.53;1460081;89;20290;-78
2022/10/14 04:44:19;;;;;;;;;;;;;;;5.94;100.00;100790.69;1465425;89;20274;-78
2022/10/14 04:46:46;;;;;;;;;;;;;;;5.95;100.00;100788.42;1450804;89;20437;-78
2022/10/14 04:49:15;;;;;;;;;;;;;;;5.96;100.00;100784.38;1453211;89;20245;-77
2022/10/14 04:51:42;;;;;;;;;;;;;;;5.99;100.00;100788.59;1464136;89;20290;-77
2022/10/14 04:54:09;;;;;;;;;;;;;;;6.01;100.00;100786.66;1453818;89;20296;-77
2022/10/14 04:56:36;;;;;;;;;;;;;;;6.02;99.90;100783.95;1455530;89;20961;-77
2022/10/14 04:59:04;;;;;;;;;;;;;;;6.05;100.00;100782.89;1458724;89;20311;-78
2022/10/14 05:01:31;;;;;;;;;;;;;;;6.08;100.00;100783.50;1465905;89;20420;-78
2022/10/14 05:03:58;;;;;;;;;;;;;;;6.11;99.71;100781.12;1456310;89;20343;-78
2022/10/14 05:06:25;;;;;;;;;;;;;;;6.10;99.50;100783.41;1455459;89;20902;-77
2022/10/14 05:08:52;;;;;;;;;;;;;;;6.10;100.00;100784.72;1456153;89;20249;-77
2022/10/14 05:11:19;;;;;;;;;;;;;;;6.14;99.73;100787.96;1464628;89;20374;-77
2022/10/14 05:13:46;;;;;;;;;;;;;;;6.17;99.95;100787.73;1463135;89;21175;-77
2022/10/14 05:16:13;;;;;;;;;;;;;;;6.21;100.00;100788.70;1454277;89;20211;-79
2022/10/14 05:18:40;;;;;;;;;;;;;;;6.23;100.00;100782.87;1439723;90;20287;-79
2022/10/14 05:21:06;;;;;;;;;;;;;;;6.27;100.00;100789.60;1438910;89;20866;-78
2022/10/14 05:23:33;;;;;;;;;;;;;;;6.33;100.00;100782.58;1453002;90;20300;-78
2022/10/14 05:26:00;;;;;;;;;;;;;;;6.38;100.00;100785.34;1461271;89;20255;-79
2022/10/14 05:28:27;;;;;;;;;;;;;;;6.43;100.00;100780.59;1453616;89;20375;-78
2022/10/14 05:30:54;;;;;;;;;;;;;;;6.48;100.00;100782.41;1423113;92;20311;-78
2022/10/14 05:33:21;;;;;;;;;;;;;;;6.53;100.00;100775.00;1431068;90;20323;-76
2022/10/14 05:35:48;;;;;;;;;;;;;;;6.61;100.00;100780.53;1430723;91;20322;-77
2022/10/14 05:38:15;;;;;;;;;;;;;;;6.69;100.00;100780.81;1453783;90;21044;-78
2022/10/14 05:40:42;;;;;;;;;;;;;;;6.76;100.00;100784.68;1454443;89;20396;-77
2022/10/14 05:43:09;;;;;;;;;;;;;;;6.80;100.00;100785.28;1460567;90;20454;-77
2022/10/14 05:45:36;;;;;;;;;;;;;;;6.83;99.70;100790.31;1456500;90;20256;-77
2022/10/14 05:48:03;;;;;;;;;;;;;;;6.84;99.48;100786.72;1454274;90;20748;-77
2022/10/14 05:50:30;;;;;;;;;;;;;;;6.90;99.32;100790.20;1448802;89;20278;-77
2022/10/14 05:52:57;;;;;;;;;;;;;;;6.99;99.46;100780.78;1454591;90;20827;-77
2022/10/14 05:55:23;;;;;;;;;;;;;;;7.06;99.65;100782.00;1455887;89;20426;-77
2022/10/14 05:57:55;;;;;;;;;;;;;;;7.13;99.32;100776.62;1455376;89;20345;-77
2022/10/14 06:00:22;;;;;;;;;;;;;;;7.21;99.60;100775.56;1452654;89;20412;-77
2022/10/14 06:02:49;;;;;;;;;;;;;;;7.22;98.82;100776.39;1453359;89;20300;-77
2022/10/14 06:05:16;;;;;;;;;;;;;;;7.24;98.87;100775.81;1459049;89;20858;-77
2022/10/14 06:07:43;;;;;;;;;;;;;;;7.31;98.46;100781.44;1441640;89;20352;-77
2022/10/14 06:10:10;;;;;;;;;;;;;;;7.38;99.52;100773.44;1448226;89;20404;-77
2022/10/14 06:12:37;;;;;;;;;;;;;;;7.46;99.76;100777.16;1452890;89;20776;-77
2022/10/14 06:15:04;;;;;;;;;;;;;;;7.52;99.22;100781.11;1456633;89;20337;-77
2022/10/14 06:17:31;;;;;;;;;;;;;;;7.55;98.99;100788.77;1448681;89;20425;-77
2022/10/14 06:19:58;;;;;;;;;;;;;;;7.57;98.87;100788.18;1461365;89;20277;-77
2022/10/14 06:22:26;;;;;;;;;;;;;;;7.62;98.79;100789.98;1453926;89;20314;-77
2022/10/14 06:24:57;;;;;;;;;;;;;;;7.73;99.11;100789.61;1443345;89;20334;-77
2022/10/14 06:27:24;;;;;;;;;;;;;;;7.79;99.37;100794.39;1415101;92;20416;-76
2022/10/14 06:29:50;;;;;;;;;;;;;;;7.82;99.05;100798.09;1455863;89;20677;-78
2022/10/14 06:32:17;;;;;;;;;;;;;;;7.85;99.70;100797.86;1451286;89;20327;-77
2022/10/14 06:34:44;;;;;;;;;;;;;;;7.93;98.91;100801.22;1450291;89;20322;-78
2022/10/14 06:37:11;;;;;;;;;;;;;;;8.02;99.57;100803.95;1449733;89;20406;-78
2022/10/14 06:39:38;;;;;;;;;;;;;;;8.10;99.09;100802.86;1458099;89;20419;-77
2022/10/14 06:42:05;;;;;;;;;;;;;;;8.22;99.07;100801.53;1426449;89;20299;-78
2022/10/14 06:44:32;;;;;;;;;;;;;;;8.28;99.80;100799.70;1452136;89;20360;-77
2022/10/14 06:46:59;;;;;;;;;;;;;;;8.39;99.06;100798.40;1443149;90;20629;-78
2022/10/14 06:49:25;;;;;;;;;;;;;;;8.47;99.05;100805.21;1453362;89;20463;-76
2022/10/14 06:51:52;;;;;;;;;;;;;;;8.54;98.77;100809.50;1451974;89;20334;-78
2022/10/14 06:54:19;;;;;;;;;;;;;;;8.62;98.37;100810.20;1453978;89;20297;-78
2022/10/14 06:56:46;;;;;;;;;;;;;;;8.68;98.06;100807.05;1455546;89;20307;-76
2022/10/14 06:59:12;;;;;;;;;;;;;;;8.68;97.90;100810.52;1451314;89;20409;-77
2022/10/14 07:01:39;;;;;;;;;;;;;;;8.69;97.46;100819.27;1450899;89;21300;-83
2022/10/14 07:04:06;;;;;;;;;;;;;;;8.76;97.42;100811.23;1450503;89;20601;-82
2022/10/14 07:06:35;;;;;;;;;;;;;;;8.81;97.91;100804.60;1453267;89;20876;-82
2022/10/14 07:09:02;;;;;;;;;;;;;;;8.91;97.68;100808.62;1442429;89;20414;-82
2022/10/14 07:11:29;;;;;;;;;;;;;;;9.00;98.15;100811.81;1437319;89;20277;-85
2022/10/14 07:14:00;;;;;;;;;;;;;;;9.03;97.83;100811.59;1457767;89;20366;-82
2022/10/14 07:16:25;;;;;;;;;;;;;;;9.17;97.77;100813.05;1452871;89;20329;-82
2022/10/14 07:18:52;;;;;;;;;;;;;;;9.27;97.74;100811.80;1454084;89;20334;-84
2022/10/14 07:21:19;;;;;;;;;;;;;;;9.35;97.47;100812.00;1446878;90;20293;-82
2022/10/14 07:23:46;;;;;;;;;;;;;;;9.51;97.13;100814.64;1443206;89;21246;-83
2022/10/14 07:26:12;;;;;;;;;;;;;;;9.62;96.76;100817.20;1444068;90;20329;-83
2022/10/14 07:28:39;;;;;;;;;;;;;;;9.74;96.12;100817.46;1442405;89;20352;-83
2022/10/14 07:31:08;;;;;;;;;;;;;;;9.84;95.50;100822.31;1446501;89;20871;-84
2022/10/14 07:33:37;;;;;;;;;;;;;;;9.97;95.80;100822.56;1379425;89;20368;-83
2022/10/14 07:36:06;;;;;;;;;;;;;;;10.05;94.69;100824.05;1512357;89;20453;-84
2022/10/14 07:38:33;;;;;;;;;;;;;;;10.16;94.33;100826.11;1375664;91;20289;-84
2022/10/14 07:41:02;;;;;;;;;;;;;;;10.27;94.28;100823.02;1385073;89;20365;-84
2022/10/14 07:43:31;;;;;;;;;;;;;;;10.39;94.27;100821.95;1385481;89;21264;-82
2022/10/14 07:46:04;;;;;;;;;;;;;;;10.48;93.76;100815.00;1377727;91;20275;-85
2022/10/14 07:48:32;;;;;;;;;;;;;;;10.59;93.89;100807.76;1382764;89;20826;-84
2022/10/14 07:50:59;;;;;;;;;;;;;;;10.66;93.11;100805.38;1399330;89;20341;-86
2022/10/14 07:53:26;;;;;;;;;;;;;;;10.80;93.22;100812.91;1437824;89;21211;-84
2022/10/14 07:55:56;;;;;;;;;;;;;;;11.04;94.01;100814.28;1453924;89;20349;-81
2022/10/14 07:58:26;;;;;;;;;;;;;;;11.23;93.04;100811.62;1443717;90;20301;-84
2022/10/14 08:00:54;;;;;;;;;;;;;;;11.20;90.18;100823.83;1449130;89;21608;-87
2022/10/14 08:03:22;;;;;;;;;;;;;;;11.32;90.48;100821.02;1458155;89;20860;-87
2022/10/14 08:05:50;;;;;;;;;;;;;;;11.45;90.84;100817.55;1446343;90;20405;-87
2022/10/14 08:08:17;;;;;;;;;;;;;;;11.53;90.00;100817.17;1453895;89;20412;-83
2022/10/14 08:10:44;;;;;;;;;;;;;;;11.57;89.00;100819.56;1452333;89;20342;-85
2022/10/14 08:13:11;;;;;;;;;;;;;;;11.56;88.69;100816.05;1455505;89;20363;-86
2022/10/14 08:15:40;;;;;;;;;;;;;;;11.66;87.81;100815.55;1453786;89;20344;-86
2022/10/14 08:18:09;;;;;;;;;;;;;;;11.82;88.87;100819.38;1455730;89;20330;-83
2022/10/14 08:20:36;;;;;;;;;;;;;;;11.80;86.77;100820.05;1378246;90;20290;-84
2022/10/14 08:23:03;;;;;;;;;;;;;;;11.84;86.87;100821.41;1378742;90;20248;-85
2022/10/14 08:25:30;;;;;;;;;;;;;;;11.70;86.91;100821.39;1380505;90;20289;-84
2022/10/14 08:27:57;;;;;;;;;;;;;;;11.79;86.97;100821.00;1381484;89;20469;-82
2022/10/14 08:30:24;;;;;;;;;;;;;;;11.91;88.21;100810.11;1385492;89;20313;-84
2022/10/14 08:32:51;;;;;;;;;;;;;;;12.06;88.14;100815.75;1536884;89;20275;-84
2022/10/14 08:35:18;;;;;;;;;;;;;;;12.23;88.43;100807.96;1386917;89;20267;-83
2022/10/14 08:37:57;;;;;;;;;;;;;;;12.32;87.13;100813.73;1382661;89;20906;-84
2022/10/14 08:40:25;;;;;;;;;;;;;;;12.41;86.63;100813.65;1417576;92;20497;-84
2022/10/14 08:43:16;;;;;;;;;;;;;;;12.52;86.98;100822.40;1381413;90;20311;-83
2022/10/14 08:45:49;;;;;;;;;;;;;;;12.60;86.51;100823.31;1425080;89;20356;-81
2022/10/14 08:48:19;;;;;;;;;;;;;;;12.71;85.99;100818.25;1477460;89;20359;-91
2022/10/14 08:50:52;;;;;;;;;;;;;;;12.82;85.64;100817.19;1440108;89;20892;-81
2022/10/14 08:53:21;;;;;;;;;;;;;;;12.94;85.60;100811.97;1455781;89;20453;-83
2022/10/14 08:55:59;;;;;;;;;;;;;;;13.09;85.28;100809.63;1453871;89;20396;-82
2022/10/14 08:58:41;;;;;;;;;;;;;;;13.21;84.86;100816.84;1515128;90;20316;-85
2022/10/14 09:01:28;;;;;;;;;;;;;;;13.38;85.09;100808.50;1398857;88;20378;-85
2022/10/14 09:04:03;;;;;;;;;;;;;;;13.44;83.69;100811.38;1529602;89;20501;-85
2022/10/14 09:06:33;;;;;;;;;;;;;;;13.62;84.28;100815.80;1459590;89;21046;-85
2022/10/14 09:09:10;;;;;;;;;;;;;;;13.74;83.73;100815.36;1444341;89;20341;-84
2022/10/14 09:11:40;;;;;;;;;;;;;;;13.84;82.77;100814.40;1464464;89;20332;-84
2022/10/14 09:14:10;;;;;;;;;;;;;;;13.86;80.69;100818.57;1460341;89;20885;-85
2022/10/14 09:16:39;;;;;;;;;;;;;;;13.82;79.62;100813.24;1458994;89;20303;-85
2022/10/14 09:19:15;;;;;;;;;;;;;;;13.84;80.72;100819.72;1460268;89;20803;-85
2022/10/14 09:21:49;;;;;;;;;;;;;;;13.87;80.98;100816.77;1458228;89;20400;-85
2022/10/14 09:24:28;;;;;;;;;;;;;;;13.96;80.88;100817.14;1452704;89;20245;-85
2022/10/14 09:27:20;;;;;;;;;;;;;;;13.76;80.00;100814.71;1458713;89;20482;-84
2022/10/14 09:29:53;;;;;;;;;;;;;;;13.67;81.09;100818.83;1459072;89;20340;-85
2022/10/14 09:32:29;;;;;;;;;;;;;;;13.76;80.95;100811.22;1450666;89;20825;-84
2022/10/14 09:34:57;;;;;;;;;;;;;;;13.82;80.50;100816.41;1466975;89;20333;-84
2022/10/14 09:37:27;;;;;;;;;;;;;;;13.98;81.27;100812.47;1457294;89;20318;-85
2022/10/14 09:39:57;;;;;;;;;;;;;;;13.99;79.38;100816.31;1455787;89;20334;-85
2022/10/14 09:42:31;;;;;;;;;;;;;;;14.07;79.85;100818.18;1465611;89;20348;-84
2022/10/14 09:45:07;;;;;;;;;;;;;;;14.18;79.88;100822.35;1456888;89;20311;-85
2022/10/14 09:47:37;;;;;;;;;;;;;;;14.29;80.03;100826.55;1458869;89;20379;-84
2022/10/14 09:50:08;;;;;;;;;;;;;;;14.38;79.37;100822.41;1455876;89;21129;-84
2022/10/14 09:52:37;;;;;;;;;;;;;;;14.59;79.52;100819.84;1462495;89;20400;-85
2022/10/14 09:55:06;;;;;;;;;;;;;;;14.67;77.96;100821.16;1462491;89;20356;-85
2022/10/14 09:57:33;;;;;;;;;;;;;;;14.72;78.29;100813.52;1458690;89;20516;-85
2022/10/14 10:00:03;;;;;;;;;;;;;;;14.78;78.16;100812.85;1464468;89;20334;-84
2022/10/14 10:02:43;;;;;;;;;;;;;;;14.98;79.56;100807.20;1448550;89;20803;-85
2022/10/14 10:05:12;;;;;;;;;;;;;;;15.16;78.94;100809.17;1462366;89;20815;-85
2022/10/14 10:07:39;;;;;;;;;;;;;;;15.21;77.03;100806.84;1458116;89;20942;-85
2022/10/14 10:10:18;;;;;;;;;;;;;;;15.37;78.34;100803.84;1458472;89;20336;-88
2022/10/14 10:12:46;;;;;;;;;;;;;;;15.40;76.19;100803.50;1460628;89;20312;-91
2022/10/14 10:15:20;;;;;;;;;;;;;;;15.49;77.59;100799.30;1460545;89;20282;-92
2022/10/14 10:17:48;;;;;;;;;;;;;;;15.93;74.30;100801.51;1463292;89;20461;-93
2022/10/14 10:20:30;;;;;;;;;;;;;;;16.68;75.45;100804.09;1464314;89;20906;-92
2022/10/14 10:22:57;;;;;;;;;;;;;;;17.40;73.70;100800.15;1461338;89;20972;-90
2022/10/14 10:25:26;;;;;;;;;;;;;;;17.97;71.34;100793.66;1463836;89;20842;-91
2022/10/14 10:27:55;;;;;;;;;;;;;;;18.45;65.30;100794.52;1464032;89;20893;-88
2022/10/14 10:30:37;;;;;;;;;;;;;;;18.65;65.72;100792.86;1459864;89;20365;-93
2022/10/14 10:33:11;;;;;;;;;;;;;;;18.98;65.73;100790.19;1454789;89;20289;-91
2022/10/14 10:36:16;;;;;;;;;;;;;;;19.26;65.31;100791.02;1463053;88;20430;-89
2022/10/14 10:39:23;;;;;;;;;;;;;;;19.46;63.47;100780.94;1458016;89;20334;-92
2022/10/14 10:42:12;;;;;;;;;;;;;;;19.99;62.85;100775.33;1447048;90;20287;-93
2022/10/14 10:45:14;;;;;;;;;;;;;;;20.42;61.85;100771.53;1441933;90;20688;-89
2022/10/14 10:47:44;;;;;;;;;;;;;;;20.42;59.27;100775.56;1455931;89;20382;-88
2022/10/14 10:50:21;;;;;;;;;;;;;;;20.77;60.88;100770.05;1468093;89;21054;-93
2022/10/14 10:53:02;;;;;;;;;;;;;;;20.83;58.18;100768.73;1458799;89;21016;-93
2022/10/14 10:55:52;;;;;;;;;;;;;;;20.71;55.57;100762.28;1463937;89;20438;-93
2022/10/14 10:58:26;;;;;;;;;;;;;;;20.69;55.96;100763.03;1461249;89;20437;-91
2022/10/14 11:01:10;;;;;;;;;;;;;;;20.80;55.61;100757.53;1458318;89;20296;-90
2022/10/14 11:04:13;;;;;;;;;;;;;;;21.02;58.30;100753.59;1459040;88;20371;-83
2022/10/14 11:12:50;;;;;;;;;;;;;;;20.13;55.12;100749.34;1459791;89;20906;-84
2022/10/14 11:15:26;;;;;;;;;;;;;;;19.79;56.07;100740.84;1463639;89;20340;-83
2022/10/14 11:18:15;;;;;;;;;;;;;;;19.37;57.88;100734.12;1464611;89;20311;-92
2022/10/14 11:21:03;;;;;;;;;;;;;;;19.48;57.96;100738.60;1452329;89;20318;-95
2022/10/14 11:23:34;;;;;;;;;;;;;;;19.38;58.58;100742.48;1442162;90;20363;-92
2022/10/14 11:26:04;;;;;;;;;;;;;;;19.28;59.48;100732.63;1451788;89;20328;-93
2022/10/14 11:28:47;;;;;;;;;;;;;;;19.25;60.01;100732.17;1449120;89;20269;-93
2022/10/14 11:31:26;;;;;;;;;;;;;;;19.34;60.43;100729.67;1443631;89;20767;-91
2022/10/14 11:34:09;;;;;;;;;;;;;;;19.41;59.59;100726.50;1443343;89;20483;-94
2022/10/14 11:37:01;;;;;;;;;;;;;;;19.29;57.40;100720.03;1444824;89;20512;-93
2022/10/14 11:39:47;;;;;;;;;;;;;;;19.42;58.30;100715.24;1451341;89;20576;-91
2022/10/14 11:42:33;;;;;;;;;;;;;;;19.61;58.55;100715.34;1446531;89;20267;-88
2022/10/14 11:45:19;;;;;;;;;;;;;;;19.69;58.71;100709.02;1448913;89;20298;-90
2022/10/14 11:47:47;;;;;;;;;;;;;;;19.89;57.92;100709.08;1446207;89;20416;-90
2022/10/14 11:50:20;;;;;;;;;;;;;;;20.17;57.49;100710.30;1445266;89;20281;-80
2022/10/14 11:53:03;;;;;;;;;;;;;;;20.16;56.43;100705.94;1459532;89;20238;-93
2022/10/14 11:55:39;;;;;;;;;;;;;;;19.87;55.29;100700.91;1454870;89;20342;-92
2022/10/14 11:58:10;;;;;;;;;;;;;;;20.20;56.68;100698.32;1444416;89;20896;-94
2022/10/14 12:00:37;;;;;;;;;;;;;;;20.38;56.09;100696.38;1453554;90;20312;-93
2022/10/14 12:03:20;;;;;;;;;;;;;;;20.43;55.53;100695.25;1450734;90;20283;-93
2022/10/14 12:05:58;;;;;;;;;;;;;;;20.54;55.73;100691.95;1444623;90;20966;-91
2022/10/14 12:08:50;;;;;;;;;;;;;;;20.59;54.66;100686.78;1452677;89;20752;-92
2022/10/14 12:11:27;;;;;;;;;;;;;;;20.51;54.37;100685.12;1449659;90;20342;-92
2022/10/14 12:14:06;;;;;;;;;;;;;;;20.56;56.14;100681.81;1452647;89;20424;-92
2022/10/14 12:16:33;;;;;;;;;;;;;;;20.71;55.81;100683.80;1444210;90;20408;-93
2022/10/14 12:19:00;;;;;;;;;;;;;;;20.75;54.53;100672.10;1445992;89;20954;-92
2022/10/14 12:21:52;;;;;;;;;;;;;;;21.04;56.32;100670.81;1444981;90;20416;-92
2022/10/14 12:24:29;;;;;;;;;;;;;;;21.12;54.19;100667.89;1448945;89;20275;-94
2022/10/14 12:26:58;;;;;;;;;;;;;;;21.02;52.56;100666.15;1452054;89;20342;-93
2022/10/14 12:29:29;;;;;;;;;;;;;;;21.23;55.16;100666.92;1451063;90;20378;-94
2022/10/14 12:32:06;;;;;;;;;;;;;;;21.28;52.72;100667.11;1458344;90;20468;-94
2022/10/14 12:34:36;;;;;;;;;;;;;;;21.15;52.56;100667.47;1451939;89;20833;-93
2022/10/14 12:37:33;;;;;;;;;;;;;;;21.10;53.96;100672.66;1454029;89;20417;-83
2022/10/14 12:40:12;;;;;;;;;;;;;;;20.99;54.80;100671.95;1448555;89;20789;-84
2022/10/14 12:42:56;;;;;;;;;;;;;;;20.89;53.86;100665.67;1447151;90;20408;-84
2022/10/14 12:45:28;;;;;;;;;;;;;;;20.70;54.40;100667.33;1456846;89;20300;-83
2022/10/14 12:48:22;;;;;;;;;;;;;;;20.43;54.75;100661.64;1454119;89;20315;-79
2022/10/14 12:50:52;;;;;;;;;;;;;;;20.23;55.06;100662.97;1455173;90;20286;-78
2022/10/14 12:53:25;;;;;;;;;;;;;;;19.98;55.00;100664.89;1459352;89;20292;-84
2022/10/14 12:55:58;;;;;;;;;;;;;;;19.78;55.87;100667.52;1449898;89;20404;-84
2022/10/14 12:58:28;;;;;;;;;;;;;;;19.67;56.90;100657.36;1453051;89;20389;-84
2022/10/14 13:00:59;;;;;;;;;;;;;;;19.73;57.39;100661.92;1458637;89;20255;-84
2022/10/14 13:03:28;;;;;;;;;;;;;;;19.61;56.63;100659.48;1448748;89;20671;-84
2022/10/14 13:06:16;;;;;;;;;;;;;;;19.47;57.11;100657.77;1450401;90;20308;-84
2022/10/14 13:08:45;;;;;;;;;;;;;;;19.32;57.48;100656.58;1455645;89;20441;-85
2022/10/14 13:11:13;;;;;;;;;;;;;;;19.24;58.29;100657.56;1449335;90;20322;-85